Time;durP1;ratioP1;P1;durP2;ratioP2;P2;SDS_P1;SDS_P2;PMS_P1;PMS_P2;Temp;Humidity;BMP_temperature;BMP_pressure;BME280_temperature;BME280_humidity;BME280_pressure;Samples;Min_cycle;Max_cycle;Signal;HPM_P1;HPM_P2
2023/05/04 00:02:33;;;;;;;2.60;1.70;;;;;;;13.39;46.76;100775.94;10074001;29;20090;-69
2023/05/04 00:07:35;;;;;;;2.40;1.65;;;;;;;13.34;46.64;100767.47;10068913;29;20063;-69
2023/05/04 00:12:36;;;;;;;2.78;2.10;;;;;;;13.30;46.82;100769.53;10068950;29;20056;-69
2023/05/04 00:17:38;;;;;;;2.92;2.05;;;;;;;13.29;46.81;100773.19;10068902;29;20148;-70
2023/05/04 00:22:40;;;;;;;5.65;1.70;;;;;;;13.24;46.77;100767.34;10073283;29;20060;-70
2023/05/04 00:27:41;;;;;;;2.88;1.90;;;;;;;13.23;46.66;100760.31;10071425;29;20057;-71
2023/05/04 00:32:42;;;;;;;4.53;1.73;;;;;;;13.19;46.49;100758.88;10077077;29;20055;-68
2023/05/04 00:37:45;;;;;;;4.68;2.20;;;;;;;13.14;46.59;100766.44;10072641;29;20049;-72
2023/05/04 00:42:46;;;;;;;2.10;1.90;;;;;;;13.05;46.98;100752.00;10073615;29;20075;-70
2023/05/04 00:47:48;;;;;;;2.65;1.60;;;;;;;13.04;46.99;100761.00;10079741;29;20065;-71
2023/05/04 00:52:51;;;;;;;2.40;1.65;;;;;;;12.96;46.79;100752.78;10073487;29;20153;-70
2023/05/04 00:57:53;;;;;;;3.72;2.10;;;;;;;12.96;46.78;100742.94;10082310;29;20084;-71
2023/05/04 01:02:55;;;;;;;3.15;1.95;;;;;;;12.84;47.05;100727.91;10073961;29;20643;-69
2023/05/04 01:08:12;;;;;;;2.63;2.10;;;;;;;12.86;47.11;100742.00;10082665;29;20059;-69
2023/05/04 01:13:15;;;;;;;5.38;2.33;;;;;;;12.85;47.26;100740.28;10065110;29;20061;-71
2023/05/04 01:18:16;;;;;;;3.38;2.25;;;;;;;12.73;47.74;100726.97;10072182;29;20078;-70
2023/05/04 01:23:18;;;;;;;4.30;2.80;;;;;;;12.72;47.64;100737.78;10074548;29;20067;-69
2023/05/04 01:28:29;;;;;;;3.45;2.28;;;;;;;12.66;47.85;100728.44;10072060;29;20102;-69
2023/05/04 01:33:31;;;;;;;4.53;2.33;;;;;;;12.62;48.17;100729.66;10080978;29;20049;-68
2023/05/04 01:38:32;;;;;;;2.35;2.13;;;;;;;12.62;48.17;100736.84;10106266;29;20299;-74
2023/05/04 01:43:33;;;;;;;2.28;2.05;;;;;;;12.60;48.50;100741.47;10105378;29;20065;-71
2023/05/04 01:48:35;;;;;;;6.07;2.60;;;;;;;12.52;48.59;100731.38;10095775;29;20052;-73
2023/05/04 01:53:36;;;;;;;3.42;2.95;;;;;;;12.52;48.87;100734.94;10092087;29;20227;-70
2023/05/04 01:58:38;;;;;;;3.60;2.50;;;;;;;12.45;48.89;100733.72;10088235;29;20159;-68
2023/05/04 02:03:40;;;;;;;4.57;2.80;;;;;;;12.46;48.91;100729.22;10087314;29;20072;-70
2023/05/04 02:08:42;;;;;;;3.78;2.35;;;;;;;12.41;49.35;100732.25;10085878;29;20217;-71
2023/05/04 02:13:43;;;;;;;4.20;2.83;;;;;;;12.41;49.15;100732.25;10081856;29;20170;-73
2023/05/04 02:18:45;;;;;;;4.90;2.85;;;;;;;12.32;49.54;100739.19;10085210;29;20052;-71
2023/05/04 02:23:46;;;;;;;4.40;2.30;;;;;;;12.28;49.73;100748.44;10087741;29;20073;-70
2023/05/04 02:28:48;;;;;;;2.67;2.47;;;;;;;12.17;49.99;100741.28;10081960;29;20082;-69
2023/05/04 02:33:50;;;;;;;3.38;3.08;;;;;;;12.14;50.31;100732.66;10082486;29;20647;-71
2023/05/04 02:38:53;;;;;;;5.10;3.65;;;;;;;12.10;50.35;100736.53;10081073;29;20063;-71
2023/05/04 02:43:54;;;;;;;3.60;3.03;;;;;;;12.03;50.53;100730.84;10089610;29;20555;-71
2023/05/04 02:48:56;;;;;;;4.40;2.75;;;;;;;11.93;50.76;100722.69;10080563;29;20068;-70
2023/05/04 02:53:57;;;;;;;4.22;2.97;;;;;;;11.92;50.96;100731.66;10074413;29;20064;-71
2023/05/04 02:58:59;;;;;;;3.88;2.78;;;;;;;11.83;50.75;100717.22;10079574;29;20052;-71
2023/05/04 03:04:00;;;;;;;5.63;3.35;;;;;;;11.84;51.09;100726.94;10077252;29;20401;-71
2023/05/04 03:09:03;;;;;;;6.03;3.08;;;;;;;11.75;51.11;100719.63;10078593;29;20067;-71
2023/05/04 03:14:05;;;;;;;4.32;2.60;;;;;;;11.73;51.27;100726.06;10074297;29;20063;-72
2023/05/04 03:19:06;;;;;;;6.63;2.90;;;;;;;11.64;51.58;100723.13;10076832;29;20084;-70
2023/05/04 03:24:08;;;;;;;3.45;3.03;;;;;;;11.61;51.62;100717.19;10081198;29;20064;-70
2023/05/04 03:29:09;;;;;;;4.20;2.72;;;;;;;11.55;51.88;100713.19;10074365;29;20170;-69
2023/05/04 03:34:13;;;;;;;4.93;3.03;;;;;;;11.55;51.66;100723.00;10079252;29;20053;-70
2023/05/04 03:39:16;;;;;;;4.40;3.20;;;;;;;11.47;52.13;100710.28;10096496;29;20730;-68
2023/05/04 03:44:18;;;;;;;4.85;2.92;;;;;;;11.49;52.10;100703.00;10117121;29;20419;-70
2023/05/04 03:49:20;;;;;;;5.32;3.30;;;;;;;11.51;51.98;100714.38;10110927;29;20064;-68
2023/05/04 03:54:21;;;;;;;3.78;2.78;;;;;;;11.40;52.04;100709.03;10108278;29;20052;-66
2023/05/04 03:59:22;;;;;;;4.78;3.33;;;;;;;11.40;52.13;100709.03;10110948;29;20117;-69
2023/05/04 04:04:24;;;;;;;6.78;3.80;;;;;;;11.39;52.30;100708.19;10106717;29;20060;-70
2023/05/04 04:09:25;;;;;;;3.60;2.97;;;;;;;11.31;52.80;100700.78;10109794;29;20311;-72
2023/05/04 04:14:27;;;;;;;5.82;3.25;;;;;;;11.37;52.59;100710.13;10071814;29;20060;-71
2023/05/04 04:19:28;;;;;;;7.72;3.22;;;;;;;11.35;52.35;100697.88;10069443;29;20056;-72
2023/05/04 04:24:30;;;;;;;3.25;2.90;;;;;;;11.38;52.75;100705.63;10076790;29;20116;-67
2023/05/04 04:29:34;;;;;;;4.57;3.40;;;;;;;11.39;52.93;100713.50;10069151;29;20151;-73
2023/05/04 04:34:35;;;;;;;5.10;3.47;;;;;;;11.36;52.91;100708.41;10085141;29;20810;-73
2023/05/04 04:39:38;;;;;;;7.63;3.67;;;;;;;11.41;52.72;100710.72;10081370;29;20059;-70
2023/05/04 04:44:39;;;;;;;4.50;3.08;;;;;;;11.38;52.75;100705.63;10069776;29;20059;-68
2023/05/04 04:49:41;;;;;;;5.40;3.40;;;;;;;11.36;53.04;100696.91;10075739;29;20057;-69
2023/05/04 04:54:44;;;;;;;3.88;3.10;;;;;;;11.47;52.76;100727.13;10074294;29;20167;-68
2023/05/04 04:59:46;;;;;;;5.68;3.72;;;;;;;11.44;53.15;100721.16;10065866;29;20480;-69
2023/05/04 05:04:48;;;;;;;4.95;3.30;;;;;;;11.41;52.83;100722.25;10078755;29;20750;-68
2023/05/04 05:09:50;;;;;;;5.50;3.40;;;;;;;11.46;52.98;100729.91;10070714;29;20060;-70
2023/05/04 05:14:51;;;;;;;4.28;3.15;;;;;;;11.47;52.88;100726.28;10085554;29;20174;-71
2023/05/04 05:19:53;;;;;;;5.75;3.45;;;;;;;11.48;52.88;100730.63;10074749;29;20056;-74
2023/05/04 05:24:54;;;;;;;6.75;3.58;;;;;;;11.56;52.92;100738.88;10103019;29;20052;-71
2023/05/04 05:29:56;;;;;;;3.08;2.78;;;;;;;11.57;52.80;100735.22;10114369;29;20459;-67
2023/05/04 05:34:57;;;;;;;6.18;3.85;;;;;;;11.61;52.70;100736.72;10083406;29;20064;-68
2023/05/04 05:39:59;;;;;;;4.88;3.60;;;;;;;11.70;52.84;100735.16;10071676;29;20049;-70
2023/05/04 05:45:03;;;;;;;4.78;3.60;;;;;;;11.78;52.44;100737.22;10070954;29;20067;-69
2023/05/04 05:50:05;;;;;;;;;;;;;;;11.87;52.51;100739.16;10085831;29;20084;-70
2023/05/04 05:55:07;;;;;;;4.90;3.88;;;;;;;11.93;52.24;100744.03;10089142;29;20984;-70
2023/05/04 06:00:09;;;;;;;5.38;3.80;;;;;;;12.10;52.17;100749.88;10074440;29;20084;-70
2023/05/04 06:05:11;;;;;;;4.25;3.65;;;;;;;12.18;52.50;100747.47;10067419;29;20060;-69
2023/05/04 06:10:13;;;;;;;7.05;3.50;;;;;;;12.28;52.17;100745.75;10061141;29;20529;-72
2023/05/04 06:15:14;;;;;;;4.28;3.40;;;;;;;12.38;51.60;100728.03;10065415;29;20139;-72
2023/05/04 06:20:16;;;;;;;5.40;4.10;;;;;;;12.49;51.21;100719.16;10062423;29;21014;-71
2023/05/04 06:25:17;;;;;;;6.57;4.45;;;;;;;12.61;51.35;100721.78;10065067;29;20067;-71
2023/05/04 06:30:23;;;;;;;4.95;3.45;;;;;;;12.80;51.06;100726.47;10072041;29;20057;-69
2023/05/04 06:35:24;;;;;;;3.90;3.50;;;;;;;12.87;50.95;100723.16;10066557;29;20063;-70
2023/05/04 06:40:26;;;;;;;5.95;3.55;;;;;;;12.92;50.67;100720.09;10074197;29;20641;-68
2023/05/04 06:45:28;;;;;;;4.50;3.65;;;;;;;13.18;50.54;100735.78;10071224;29;20085;-70
2023/05/04 06:50:30;;;;;;;5.30;3.67;;;;;;;13.29;49.81;100733.06;10068416;29;20147;-70
2023/05/04 06:55:31;;;;;;;7.55;4.93;;;;;;;13.40;50.06;100730.34;10069396;29;20052;-68
2023/05/04 07:00:33;;;;;;;6.45;4.80;;;;;;;13.63;49.85;100730.25;10068641;29;20200;-71
2023/05/04 07:05:38;;;;;;;7.22;4.03;;;;;;;13.75;49.34;100728.31;10078130;29;20361;-70
2023/05/04 07:10:40;;;;;;;;;;;;;;;13.94;49.23;100736.44;10069002;29;20127;-69
2023/05/04 07:15:41;;;;;;;4.65;3.38;;;;;;;13.95;48.75;100729.28;10070860;29;19923;-69
2023/05/04 07:20:43;;;;;;;4.35;3.33;;;;;;;14.11;48.75;100724.28;10073359;29;20057;-69
2023/05/04 07:25:44;;;;;;;5.25;3.63;;;;;;;14.26;48.80;100723.88;10070366;29;20081;-71
2023/05/04 07:30:46;;;;;;;7.03;3.58;;;;;;;14.49;48.78;100714.66;10068933;29;20163;-72
2023/05/04 07:35:47;;;;;;;5.53;4.00;;;;;;;14.68;47.94;100710.34;10070272;29;20139;-72
2023/05/04 07:40:49;;;;;;;5.80;4.30;;;;;;;14.80;47.64;100709.25;10071253;29;20068;-72
2023/05/04 07:45:53;;;;;;;6.00;4.97;;;;;;;14.93;47.57;100703.59;10092429;29;20297;-71
2023/05/04 07:50:54;;;;;;;4.97;4.47;;;;;;;15.21;48.29;100706.41;10084343;29;20152;-72
2023/05/04 07:55:59;;;;;;;5.95;4.28;;;;;;;15.48;47.78;100702.97;10068651;29;20394;-70
2023/05/04 08:01:01;;;;;;;8.30;4.82;;;;;;;15.62;47.47;100693.63;10068150;29;20483;-71
2023/05/04 08:06:02;;;;;;;7.10;4.68;;;;;;;15.83;47.49;100700.66;10064682;29;20709;-70
2023/05/04 08:11:04;;;;;;;8.05;4.65;;;;;;;16.20;47.16;100703.31;10065551;29;20573;-74
2023/05/04 08:16:21;;;;;;;6.40;4.68;;;;;;;16.49;46.13;100685.34;10064017;29;20048;-74
2023/05/04 08:21:22;;;;;;;5.53;4.53;;;;;;;16.69;45.51;100680.66;10072091;29;20148;-73
2023/05/04 08:26:23;;;;;;;4.63;4.22;;;;;;;16.87;45.05;100672.63;10066717;29;20084;-72
2023/05/04 08:31:25;;;;;;;8.20;4.43;;;;;;;17.31;45.41;100664.59;10085384;29;20474;-71
2023/05/04 08:36:27;;;;;;;8.77;4.60;;;;;;;17.57;44.34;100653.81;10072858;29;20056;-72
2023/05/04 08:41:29;;;;;;;9.15;5.30;;;;;;;17.92;43.82;100648.47;10073210;29;20082;-73
2023/05/04 08:46:31;;;;;;;7.53;4.72;;;;;;;18.17;43.54;100644.00;10062084;29;20614;-72
2023/05/04 08:51:35;;;;;;;7.03;4.38;;;;;;;18.47;43.38;100644.44;10068597;29;20044;-72
2023/05/04 08:56:39;;;;;;;6.72;4.88;;;;;;;18.66;42.95;100644.13;10071510;29;20797;-71
2023/05/04 09:01:40;;;;;;;6.32;4.70;;;;;;;18.89;41.95;100632.69;10073223;29;20062;-72
2023/05/04 09:06:42;;;;;;;11.45;5.45;;;;;;;19.17;41.86;100622.41;10072415;29;20048;-70
2023/05/04 09:11:43;;;;;;;5.18;4.50;;;;;;;19.24;41.68;100611.75;10065954;29;20456;-71
2023/05/04 09:16:45;;;;;;;5.43;4.53;;;;;;;19.45;41.90;100613.88;10081883;29;20052;-72
2023/05/04 09:21:48;;;;;;;6.05;4.25;;;;;;;19.86;41.39;100624.59;10082350;29;20052;-74
2023/05/04 09:26:49;;;;;;;6.68;4.50;;;;;;;20.19;40.81;100615.47;10070527;29;20548;-74
2023/05/04 09:31:51;;;;;;;5.30;3.92;;;;;;;20.65;38.70;100604.69;10064598;29;20053;-70
2023/05/04 09:37:01;;;;;;;5.07;4.47;;;;;;;20.81;37.88;100604.59;10062499;29;20067;-70
2023/05/04 09:42:04;;;;;;;4.97;4.20;;;;;;;21.21;37.23;100607.06;10066907;29;20360;-73
2023/05/04 09:47:06;;;;;;;;;;;;;;;21.60;37.35;100599.75;10064313;29;20604;-75
2023/05/04 09:52:07;;;;;;;5.70;3.92;;;;;;;21.90;36.46;100595.13;10067612;29;20385;-72
2023/05/04 09:57:11;;;;;;;5.30;3.63;;;;;;;21.64;37.97;100598.38;10069772;29;20566;-70
2023/05/04 10:02:13;;;;;;;5.43;4.07;;;;;;;22.29;36.53;100582.25;10069306;29;20513;-71
2023/05/04 10:07:23;;;;;;;5.47;4.50;;;;;;;22.31;34.71;100577.44;10080954;29;20470;-72
2023/05/04 10:12:25;;;;;;;5.07;4.07;;;;;;;22.38;34.74;100564.84;10075078;29;20056;-74
2023/05/04 10:17:46;;;;;;;4.72;3.60;;;;;;;22.50;33.95;100552.44;10080667;29;20208;-73
2023/05/04 10:23:33;;;;;;;4.65;3.60;;;;;;;23.45;32.47;100560.25;10072525;29;20061;-73
2023/05/04 10:28:53;;;;;;;4.38;3.50;;;;;;;24.88;31.04;100548.50;10083389;29;20052;-74
2023/05/04 10:33:55;;;;;;;5.55;3.35;;;;;;;25.45;29.66;100553.44;10103998;29;20113;-70
2023/05/04 10:38:57;;;;;;;3.72;2.70;;;;;;;25.20;28.19;100543.19;10084872;29;20072;-72
2023/05/04 10:44:03;;;;;;;2.95;2.58;;;;;;;25.77;27.19;100532.53;10073806;29;20048;-72
2023/05/04 10:49:15;;;;;;;4.13;2.70;;;;;;;26.04;25.60;100525.09;10071167;29;20201;-72
2023/05/04 10:54:20;;;;;;;3.97;3.08;;;;;;;26.07;26.04;100513.72;10072741;29;20048;-72
2023/05/04 10:59:21;;;;;;;4.28;2.42;;;;;;;26.69;26.53;100491.22;10074819;29;20052;-71
2023/05/04 11:04:23;;;;;;;2.40;2.13;;;;;;;27.15;24.99;100486.38;10070779;29;20048;-74
2023/05/04 11:09:28;;;;;;;2.40;2.13;;;;;;;27.25;25.25;100474.88;10095070;29;20032;-74
2023/05/04 11:14:29;;;;;;;4.38;2.72;;;;;;;26.93;24.68;100466.84;10119421;29;20045;-76
2023/05/04 11:19:35;;;;;;;3.33;1.90;;;;;;;26.81;25.59;100464.88;10109026;29;20064;-73
2023/05/04 11:24:47;;;;;;;2.40;2.20;;;;;;;27.63;24.27;100439.09;10117680;29;20044;-76
2023/05/04 11:29:56;;;;;;;3.80;1.95;;;;;;;27.77;24.06;100428.78;10114370;29;20124;-74
2023/05/04 11:34:58;;;;;;;2.88;2.33;;;;;;;28.14;23.75;100434.16;10128423;29;20148;-74
2023/05/04 11:39:59;;;;;;;3.13;2.50;;;;;;;27.84;23.89;100426.81;10079656;29;20485;-71
2023/05/04 11:45:01;;;;;;;3.22;2.33;;;;;;;27.84;24.22;100418.59;10079555;29;20563;-71
2023/05/04 11:50:05;;;;;;;2.20;2.00;;;;;;;28.00;24.24;100405.38;10092479;29;20076;-71
2023/05/04 11:55:12;;;;;;;2.53;2.08;;;;;;;27.43;24.08;100401.13;10095189;29;20078;-73
2023/05/04 12:00:13;;;;;;;4.15;1.85;;;;;;;27.58;24.50;100392.50;10095025;29;20131;-72
2023/05/04 12:05:15;;;;;;;2.72;2.20;;;;;;;27.98;23.89;100388.34;10090894;29;20071;-71
2023/05/04 12:10:28;;;;;;;2.90;1.98;;;;;;;27.98;24.50;100378.25;10088929;29;20110;-72
2023/05/04 12:15:31;;;;;;;2.63;2.05;;;;;;;28.26;24.22;100384.09;10086095;29;20564;-72
2023/05/04 12:20:33;;;;;;;2.90;2.33;;;;;;;27.95;24.48;100381.38;10084173;29;20783;-71
2023/05/04 12:25:34;;;;;;;5.22;2.30;;;;;;;27.90;23.54;100372.25;10081216;29;20079;-71
2023/05/04 12:30:52;;;;;;;2.88;1.98;;;;;;;27.95;23.46;100375.91;10079863;29;20080;-73
2023/05/04 12:35:53;;;;;;;2.65;1.92;;;;;;;27.46;23.59;100354.19;10075632;29;20361;-73
2023/05/04 12:40:57;;;;;;;3.05;2.50;;;;;;;27.11;23.88;100360.34;10078241;29;20151;-77
2023/05/04 12:45:59;;;;;;;2.95;1.90;;;;;;;26.73;23.94;100355.13;10077548;29;20061;-71
2023/05/04 12:51:03;;;;;;;2.33;2.13;;;;;;;26.92;24.45;100355.97;10075049;29;20061;-70
2023/05/04 12:56:05;;;;;;;3.22;2.30;;;;;;;27.12;24.71;100348.31;10068624;29;20433;-73
2023/05/04 13:01:07;;;;;;;6.28;2.33;;;;;;;26.87;25.08;100336.69;10078212;29;20068;-71
2023/05/04 13:06:09;;;;;;;3.33;1.95;;;;;;;26.92;25.70;100334.13;10073618;29;20061;-71
2023/05/04 13:11:10;;;;;;;3.20;2.47;;;;;;;26.91;25.28;100325.06;10083971;29;20048;-73
2023/05/04 13:16:12;;;;;;;5.07;2.42;;;;;;;26.85;25.32;100314.25;10080816;29;20056;-69
2023/05/04 13:21:13;;;;;;;3.97;2.27;;;;;;;26.81;24.83;100306.50;10071159;29;20053;-71
2023/05/04 13:26:15;;;;;;;3.60;2.35;;;;;;;26.47;26.32;100302.47;10067962;29;20068;-69
2023/05/04 13:31:16;;;;;;;3.50;2.63;;;;;;;26.13;26.64;100293.81;10068506;29;20079;-72
2023/05/04 13:36:17;;;;;;;4.18;2.30;;;;;;;26.01;26.21;100301.91;10065843;29;20068;-70
2023/05/04 13:41:20;;;;;;;2.72;2.33;;;;;;;25.94;26.54;100291.03;10075185;29;20060;-74
2023/05/04 13:46:21;;;;;;;2.75;2.33;;;;;;;25.90;26.47;100269.91;10071694;29;20052;-71
2023/05/04 13:51:23;;;;;;;3.55;2.55;;;;;;;25.97;26.35;100267.09;10075562;29;20059;-73
2023/05/04 13:56:24;;;;;;;3.42;2.55;;;;;;;25.89;26.42;100273.66;10069344;29;20060;-73
2023/05/04 14:01:26;;;;;;;2.53;2.30;;;;;;;25.77;27.92;100252.56;10074326;29;20572;-70
2023/05/04 14:06:28;;;;;;;3.63;2.13;;;;;;;25.76;27.74;100248.22;10074605;29;20053;-73
2023/05/04 14:11:30;;;;;;;7.28;4.15;;;;;;;25.68;27.66;100226.66;10077559;29;20058;-73
2023/05/04 14:16:31;;;;;;;3.50;3.00;;;;;;;25.53;27.93;100207.94;10070954;29;20063;-70
2023/05/04 14:21:35;;;;;;;3.00;2.47;;;;;;;25.46;28.00;100215.34;10078029;29;20072;-70
2023/05/04 14:26:37;;;;;;;7.93;2.53;;;;;;;25.34;28.26;100206.22;10072425;29;20058;-71
2023/05/04 14:31:38;;;;;;;3.08;2.22;;;;;;;25.20;28.43;100198.13;10071560;29;20607;-69
2023/05/04 14:36:40;;;;;;;4.60;2.55;;;;;;;25.13;28.33;100201.94;10073138;29;20067;-71
2023/05/04 14:41:41;;;;;;;2.60;2.20;;;;;;;24.87;28.87;100193.75;10073309;29;20159;-72
2023/05/04 14:46:42;;;;;;;3.13;2.50;;;;;;;24.66;29.18;100192.19;10074222;29;20052;-69
2023/05/04 14:51:44;;;;;;;4.47;2.10;;;;;;;24.66;29.07;100192.19;10072077;29;20111;-71
2023/05/04 14:56:46;;;;;;;7.15;5.57;;;;;;;24.56;29.60;100174.66;10088537;29;20345;-72
2023/05/04 15:01:47;;;;;;;4.13;2.17;;;;;;;24.50;29.32;100171.75;10081711;29;21447;-69
2023/05/04 15:06:49;;;;;;;4.45;2.03;;;;;;;24.41;28.71;100162.19;10070626;29;20492;-70
2023/05/04 15:11:50;;;;;;;3.45;2.20;;;;;;;24.44;29.32;100160.88;10068740;29;20067;-71
2023/05/04 15:16:52;;;;;;;2.55;1.90;;;;;;;24.33;28.18;100152.34;10070127;29;20052;-70
2023/05/04 15:21:53;;;;;;;1.70;1.60;;;;;;;24.17;28.48;100150.97;10068282;29;20067;-71
2023/05/04 15:26:55;;;;;;;4.15;2.30;;;;;;;24.10;29.17;100152.88;10072225;29;20067;-72
2023/05/04 15:31:56;;;;;;;4.05;1.92;;;;;;;24.07;29.10;100156.03;10069213;29;20048;-69
2023/05/04 15:36:58;;;;;;;2.80;2.10;;;;;;;24.04;28.65;100161.09;10061870;29;20893;-71
2023/05/04 15:42:00;;;;;;;5.72;3.33;;;;;;;23.85;29.37;100162.78;10065125;29;20152;-70
2023/05/04 15:47:04;;;;;;;2.10;1.87;;;;;;;23.88;29.32;100160.47;10067129;29;20143;-69
2023/05/04 15:52:06;;;;;;;4.38;2.10;;;;;;;23.75;29.78;100152.34;10069833;29;20079;-68
2023/05/04 15:57:07;;;;;;;4.23;2.23;;;;;;;23.72;30.49;100147.31;10065113;29;20060;-72
2023/05/04 16:02:09;;;;;;;3.47;1.83;;;;;;;23.64;29.81;100138.38;10098551;29;20052;-71
2023/05/04 16:07:10;;;;;;;2.95;2.05;;;;;;;23.59;30.63;100131.91;10074311;29;20049;-71
2023/05/04 16:12:11;;;;;;;2.40;2.17;;;;;;;23.60;30.06;100133.56;10065994;29;20066;-70
2023/05/04 16:17:13;;;;;;;3.17;1.95;;;;;;;23.54;30.63;100116.25;10070920;29;20056;-75
2023/05/04 16:22:14;;;;;;;3.35;1.80;;;;;;;23.46;30.54;100114.59;10069464;29;20817;-72
2023/05/04 16:27:16;;;;;;;2.80;1.80;;;;;;;23.41;30.72;100108.13;10072889;29;20068;-68
2023/05/04 16:32:17;;;;;;;3.10;2.35;;;;;;;23.23;30.86;100095.19;10072081;29;20059;-69
2023/05/04 16:37:19;;;;;;;3.95;2.08;;;;;;;23.21;30.71;100087.25;10074496;29;20052;-70
2023/05/04 16:42:20;;;;;;;3.20;1.83;;;;;;;23.12;30.64;100080.38;10082592;29;20112;-71
2023/05/04 16:47:22;;;;;;;2.03;1.80;;;;;;;23.05;30.83;100076.78;10080105;29;20124;-71
2023/05/04 16:52:23;;;;;;;3.17;1.88;;;;;;;22.99;31.02;100085.78;10070139;29;20052;-71
2023/05/04 16:57:25;;;;;;;3.65;1.75;;;;;;;22.97;31.21;100101.41;10069026;29;20115;-69
2023/05/04 17:02:27;;;;;;;3.47;1.87;;;;;;;22.94;31.33;100103.53;10068318;29;20072;-72
2023/05/04 17:07:28;;;;;;;4.70;1.95;;;;;;;22.87;32.28;100078.25;10070050;29;20066;-73
2023/05/04 17:12:29;;;;;;;4.07;2.03;;;;;;;22.93;31.38;100084.72;10068937;29;20056;-74
2023/05/04 17:17:31;;;;;;;2.22;1.73;;;;;;;22.85;32.08;100072.22;10070736;29;20686;-71
2023/05/04 17:22:32;;;;;;;3.92;1.88;;;;;;;22.84;31.62;100067.81;10065647;29;20076;-72
2023/05/04 17:27:34;;;;;;;3.65;2.00;;;;;;;22.74;32.06;100075.53;10066134;29;21011;-71
2023/05/04 17:32:35;;;;;;;2.70;2.03;;;;;;;22.68;31.86;100069.06;10070143;29;20052;-70
2023/05/04 17:37:38;;;;;;;3.73;2.40;;;;;;;22.56;32.33;100062.56;10067322;29;21553;-72
2023/05/04 17:42:39;;;;;;;3.70;2.22;;;;;;;22.56;32.11;100073.44;10065668;29;20943;-72
2023/05/04 17:47:42;;;;;;;2.78;1.67;;;;;;;22.54;32.30;100076.34;10072380;29;20045;-72
2023/05/04 17:52:43;;;;;;;;;;;;;;;22.48;32.48;100079.06;10068798;29;20047;-71
2023/05/04 17:57:45;;;;;;;3.95;2.00;;;;;;;22.36;32.14;100078.81;10066587;29;19928;-72
2023/05/04 18:02:47;;;;;;;2.20;1.88;;;;;;;22.31;32.47;100081.28;10064376;29;20056;-70
2023/05/04 18:07:48;;;;;;;2.45;1.67;;;;;;;22.31;32.27;100098.44;10065449;29;20063;-71
2023/05/04 18:12:49;;;;;;;3.90;1.70;;;;;;;22.21;32.42;100089.81;10069639;29;20724;-70
2023/05/04 18:17:51;;;;;;;3.20;1.80;;;;;;;22.20;32.38;100096.25;10065803;29;20477;-70
2023/05/04 18:22:52;;;;;;;5.70;1.90;;;;;;;22.08;32.29;100093.28;10064553;29;20181;-71
2023/05/04 18:27:54;;;;;;;3.38;2.30;;;;;;;21.97;32.51;100107.44;10073080;29;20057;-70
2023/05/04 18:32:55;;;;;;;3.92;2.15;;;;;;;21.85;32.81;100094.47;10071057;29;20136;-72
2023/05/04 18:37:57;;;;;;;2.92;2.15;;;;;;;21.79;33.06;100095.25;10073981;29;20204;-71
2023/05/04 18:42:58;;;;;;;2.95;2.63;;;;;;;21.83;33.09;100101.13;10074231;29;20138;-73
2023/05/04 18:47:59;;;;;;;2.20;2.00;;;;;;;21.79;33.32;100100.69;10072371;29;20085;-72
2023/05/04 18:53:01;;;;;;;2.80;2.22;;;;;;;21.71;33.54;100120.66;10072369;29;20056;-72
2023/05/04 18:58:02;;;;;;;2.42;2.20;;;;;;;21.62;33.79;100129.13;10071368;29;20056;-71
2023/05/04 19:03:04;;;;;;;2.50;1.98;;;;;;;21.53;33.84;100123.88;10072071;29;20061;-71
2023/05/04 19:08:05;;;;;;;2.88;2.35;;;;;;;21.50;33.72;100128.88;10070994;29;20138;-70
2023/05/04 19:13:07;;;;;;;3.42;2.30;;;;;;;21.44;34.60;100135.00;10071898;29;20052;-71
2023/05/04 19:18:09;;;;;;;3.67;2.17;;;;;;;21.35;34.52;100137.06;10069081;29;20090;-72
2023/05/04 19:23:10;;;;;;;2.45;1.98;;;;;;;21.24;35.26;100140.28;10070869;29;20052;-71
2023/05/04 19:28:12;;;;;;;2.88;1.88;;;;;;;21.21;35.24;100151.50;10076095;29;20617;-71
2023/05/04 19:33:13;;;;;;;3.72;2.13;;;;;;;21.16;35.17;100158.34;10067507;29;20052;-73
2023/05/04 19:38:15;;;;;;;3.88;2.25;;;;;;;21.09;35.90;100160.19;10071528;29;20215;-71
2023/05/04 19:43:16;;;;;;;3.58;2.17;;;;;;;20.95;35.47;100151.09;10068179;29;20111;-72
2023/05/04 19:48:20;;;;;;;2.90;2.70;;;;;;;20.91;35.75;100157.94;10073671;29;20060;-71
2023/05/04 19:53:21;;;;;;;5.38;2.95;;;;;;;20.83;36.11;100161.56;10069569;29;20119;-72
2023/05/04 19:58:26;;;;;;;3.65;2.60;;;;;;;20.76;37.15;100159.84;10070034;29;20057;-72
2023/05/04 20:03:29;;;;;;;4.75;2.72;;;;;;;20.63;37.12;100157.81;10068538;29;20671;-72
2023/05/04 20:08:30;;;;;;;3.92;2.85;;;;;;;20.54;36.64;100161.69;10070926;29;20193;-73
2023/05/04 20:13:32;;;;;;;3.80;2.88;;;;;;;20.46;37.76;100154.50;10068964;29;20056;-72
2023/05/04 20:18:33;;;;;;;4.38;2.80;;;;;;;20.39;37.02;100161.72;10064150;29;20060;-71
2023/05/04 20:23:34;;;;;;;4.93;2.85;;;;;;;20.29;38.13;100157.44;10080775;29;20067;-74
2023/05/04 20:28:36;;;;;;;4.53;3.22;;;;;;;20.16;37.67;100146.44;10079708;29;20052;-71
2023/05/04 20:33:38;;;;;;;3.42;2.58;;;;;;;20.18;37.36;100163.34;10075216;29;20060;-70
2023/05/04 20:38:39;;;;;;;2.78;2.45;;;;;;;20.10;37.94;100158.88;10075704;29;20053;-68
2023/05/04 20:43:41;;;;;;;4.20;2.83;;;;;;;20.03;37.66;100159.81;10074957;29;20489;-71
2023/05/04 20:48:42;;;;;;;3.63;3.33;;;;;;;19.91;39.34;100156.75;10087361;29;20144;-69
2023/05/04 20:53:44;;;;;;;3.28;2.47;;;;;;;19.90;38.37;100155.06;10086376;29;20056;-69
2023/05/04 20:58:45;;;;;;;3.88;3.10;;;;;;;19.81;38.16;100158.88;10078030;29;20568;-71
2023/05/04 21:03:46;;;;;;;3.47;2.95;;;;;;;19.72;38.26;100148.13;10071640;29;20057;-69
2023/05/04 21:08:48;;;;;;;2.63;2.40;;;;;;;19.70;39.28;100154.75;10072120;29;20045;-71
2023/05/04 21:13:49;;;;;;;5.38;2.88;;;;;;;19.56;38.95;100124.88;10077054;29;20063;-69
2023/05/04 21:18:51;;;;;;;6.55;3.00;;;;;;;19.50;38.68;100133.72;10072400;29;20056;-73
2023/05/04 21:23:52;;;;;;;3.90;2.83;;;;;;;19.43;39.13;100128.19;10078663;29;20107;-71
2023/05/04 21:28:54;;;;;;;5.45;3.35;;;;;;;19.36;38.71;100129.94;10099543;29;20061;-73
2023/05/04 21:33:56;;;;;;;7.20;4.28;;;;;;;19.31;39.14;100131.56;10099095;29;20137;-69
2023/05/04 21:38:57;;;;;;;4.30;3.13;;;;;;;19.16;39.96;100126.13;10077754;29;20052;-74
2023/05/04 21:43:59;;;;;;;4.28;3.58;;;;;;;19.07;40.25;100118.09;10077099;29;20788;-71
2023/05/04 21:49:00;;;;;;;5.43;3.30;;;;;;;19.04;40.77;100128.41;10069639;29;20059;-68
2023/05/04 21:54:02;;;;;;;6.28;2.83;;;;;;;18.99;40.45;100128.97;10070352;29;20079;-71
2023/05/04 21:59:03;;;;;;;4.65;2.85;;;;;;;18.87;40.74;100133.09;10071987;29;20063;-74
2023/05/04 22:04:05;;;;;;;3.90;3.33;;;;;;;18.83;40.57;100132.59;10073962;29;20061;-71
2023/05/04 22:09:07;;;;;;;4.95;3.03;;;;;;;18.79;40.83;100136.66;10076198;29;20057;-71
2023/05/04 22:14:09;;;;;;;4.30;3.20;;;;;;;18.74;41.57;100130.97;10078314;29;20580;-69
2023/05/04 22:19:10;;;;;;;4.00;3.00;;;;;;;18.68;41.20;100129.84;10077366;29;20060;-66
2023/05/04 22:24:12;;;;;;;3.45;3.10;;;;;;;18.57;41.82;100116.78;10074095;29;20158;-71
2023/05/04 22:29:13;;;;;;;4.95;3.00;;;;;;;18.52;41.79;100127.25;10070412;29;20053;-68
2023/05/04 22:34:14;;;;;;;3.95;2.83;;;;;;;18.48;41.87;100120.53;10078084;29;20322;-71
2023/05/04 22:39:16;;;;;;;6.38;3.05;;;;;;;18.37;41.32;100121.78;10074690;29;20212;-71
2023/05/04 22:44:17;;;;;;;3.08;2.72;;;;;;;18.37;42.01;100133.41;10075844;29;20118;-71
2023/05/04 22:49:19;;;;;;;2.88;2.58;;;;;;;18.38;41.71;100135.06;10070344;29;20068;-69
2023/05/04 22:54:20;;;;;;;3.83;2.60;;;;;;;18.30;42.96;100132.44;10074039;29;20052;-68
2023/05/04 22:59:22;;;;;;;3.45;2.38;;;;;;;18.29;42.99;100127.22;10073923;29;20059;-68
2023/05/04 23:04:23;;;;;;;7.03;2.92;;;;;;;18.24;41.63;100133.16;10069987;29;20075;-69
2023/05/04 23:09:25;;;;;;;3.88;2.72;;;;;;;18.23;42.29;100136.84;10069998;29;20053;-67